createdAt,value
2023-05-22T00:00:03.839Z,17.60
2023-05-22T00:01:06.000Z,17.60
2023-05-22T00:02:03.579Z,17.50
2023-05-22T00:03:03.312Z,17.50
2023-05-22T00:04:06.666Z,17.40
2023-05-22T00:05:04.176Z,17.50
2023-05-22T00:06:03.890Z,17.50
2023-05-22T00:07:06.105Z,17.50
2023-05-22T00:08:03.609Z,17.50
2023-05-22T00:09:08.271Z,17.50
2023-05-22T00:10:06.590Z,17.40
2023-05-22T00:11:06.666Z,17.50
2023-05-22T00:12:04.176Z,17.40
2023-05-22T00:13:03.816Z,17.40
2023-05-22T00:14:06.042Z,17.40
2023-05-22T00:15:03.578Z,17.40
2023-05-22T00:16:09.222Z,17.40
2023-05-22T00:17:03.732Z,17.40
2023-05-22T00:18:03.377Z,17.40
2023-05-22T00:19:06.617Z,17.40
2023-05-22T00:20:05.709Z,17.30
2023-05-22T00:21:03.219Z,17.30
2023-05-22T00:22:08.920Z,17.30
2023-05-22T00:23:05.945Z,17.30
2023-05-22T00:24:05.971Z,17.40
2023-05-22T00:25:03.531Z,17.30
2023-05-22T00:26:03.207Z,17.30
2023-05-22T00:27:03.788Z,17.30
2023-05-22T00:28:03.394Z,17.30
2023-05-22T00:29:04.056Z,17.30
2023-05-22T00:30:03.797Z,17.30
2023-05-22T00:31:05.909Z,17.20
2023-05-22T00:32:03.344Z,17.30
2023-05-22T00:33:06.533Z,17.30
2023-05-22T00:34:04.203Z,17.20
2023-05-22T00:35:03.884Z,17.20
2023-05-22T00:36:03.487Z,17.20
2023-05-22T00:37:04.043Z,17.30
2023-05-22T00:38:03.617Z,17.20
2023-05-22T00:39:05.715Z,17.20
2023-05-22T00:40:09.312Z,17.10
2023-05-22T00:41:03.839Z,17.10
2023-05-22T00:42:03.406Z,17.10
2023-05-22T00:43:04.104Z,17.10
2023-05-22T00:44:06.358Z,17.10
2023-05-22T00:45:03.839Z,17.10
2023-05-22T00:46:03.463Z,17.10
2023-05-22T00:47:06.632Z,17.00
2023-05-22T00:48:04.116Z,17.10
2023-05-22T00:49:06.241Z,17.00
2023-05-22T00:50:03.711Z,17.00
2023-05-22T00:51:03.314Z,17.00
2023-05-22T00:52:03.998Z,17.00
2023-05-22T00:53:03.636Z,17.00
2023-05-22T00:54:03.295Z,17.00
2023-05-22T00:55:03.874Z,16.90
2023-05-22T00:56:03.513Z,17.00
2023-05-22T00:57:05.794Z,17.00
2023-05-22T00:58:05.852Z,17.00
2023-05-22T00:59:03.369Z,16.90
2023-05-22T01:00:06.555Z,17.00
2023-05-22T01:01:06.601Z,16.90
2023-05-22T01:02:04.180Z,16.90
2023-05-22T01:03:03.883Z,16.90
2023-05-22T01:05:03.418Z,16.80
2023-05-22T01:06:03.997Z,16.90
2023-05-22T01:08:05.764Z,16.70
2023-05-22T01:09:03.250Z,16.80
2023-05-22T01:10:03.863Z,16.80
2023-05-22T01:11:03.463Z,16.70
2023-05-22T01:12:04.018Z,16.70
2023-05-22T01:13:03.659Z,16.70
2023-05-22T01:14:03.402Z,16.70
2023-05-22T01:15:06.693Z,16.60
2023-05-22T01:16:05.751Z,16.60
2023-05-22T01:17:03.530Z,16.60
2023-05-22T01:18:03.245Z,16.60
2023-05-22T01:19:03.820Z,16.50
2023-05-22T01:20:03.425Z,16.50
2023-05-22T01:21:09.121Z,16.50
2023-05-22T01:22:03.564Z,16.50
2023-05-22T01:23:03.248Z,16.40
2023-05-22T01:24:03.942Z,3.60
2023-05-22T01:26:05.875Z,16.40
2023-05-22T01:27:05.908Z,16.30
2023-05-22T01:28:03.323Z,16.40
2023-05-22T01:29:04.047Z,16.30
2023-05-22T01:30:03.718Z,16.30
2023-05-22T01:31:03.338Z,16.30
2023-05-22T01:32:03.969Z,16.30
2023-05-22T01:34:03.493Z,16.20
2023-05-22T01:35:04.200Z,16.20
2023-05-22T01:36:03.853Z,16.20
2023-05-22T01:37:03.464Z,16.20
2023-05-22T01:38:04.085Z,16.20
2023-05-22T01:39:03.685Z,16.20
2023-05-22T01:40:06.462Z,16.20
2023-05-22T01:41:06.552Z,16.20
2023-05-22T01:42:03.991Z,16.20
2023-05-22T01:43:03.512Z,16.20
2023-05-22T01:44:04.121Z,16.20
2023-05-22T01:45:03.759Z,16.20
2023-05-22T01:46:03.420Z,16.20
2023-05-22T01:47:03.271Z,16.20
2023-05-22T01:48:03.947Z,16.10
2023-05-22T01:49:06.095Z,16.10
2023-05-22T01:50:06.055Z,16.20
2023-05-22T01:51:06.032Z,16.10
2023-05-22T01:52:08.589Z,16.10
2023-05-22T01:53:04.038Z,16.10
2023-05-22T01:54:06.247Z,16.10
2023-05-22T01:55:08.887Z,16.10
2023-05-22T01:56:05.921Z,16.10
2023-05-22T01:57:06.013Z,16.10
2023-05-22T01:58:03.482Z,16.10
2023-05-22T01:59:06.622Z,16.10
2023-05-22T02:00:09.148Z,16.10
2023-05-22T02:01:03.755Z,16.10
2023-05-22T02:02:05.996Z,16.10
2023-05-22T02:03:03.567Z,16.10
2023-05-22T02:04:06.101Z,16.10
2023-05-22T02:05:05.849Z,16.10
2023-05-22T02:06:03.326Z,16.10
2023-05-22T02:07:06.522Z,16.10
2023-05-22T02:08:04.076Z,16.10
2023-05-22T02:09:03.720Z,16.10
2023-05-22T02:11:04.116Z,16.10
2023-05-22T02:12:03.797Z,16.10
2023-05-22T02:13:03.381Z,16.10
2023-05-22T02:14:06.541Z,16.10
2023-05-22T02:15:06.543Z,16.10
2023-05-22T02:16:06.573Z,16.10
2023-05-22T02:18:03.740Z,16.10
2023-05-22T02:20:03.246Z,16.10
2023-05-22T02:21:03.840Z,16.10
2023-05-22T02:22:06.081Z,16.10
2023-05-22T02:23:03.564Z,16.10
2023-05-22T02:24:05.761Z,16.10
2023-05-22T02:25:05.868Z,16.10
2023-05-22T02:26:03.314Z,16.10
2023-05-22T02:27:03.929Z,16.10
2023-05-22T02:28:06.105Z,16.10
2023-05-22T02:29:03.498Z,16.10
2023-05-22T02:30:04.085Z,16.10
2023-05-22T02:31:11.983Z,16.10
2023-05-22T02:32:03.266Z,16.10
2023-05-22T02:33:06.434Z,16.10
2023-05-22T02:34:04.031Z,16.10
2023-05-22T02:36:03.926Z,16.10
2023-05-22T02:37:03.510Z,16.10
2023-05-22T02:38:05.744Z,16.10
2023-05-22T02:39:03.153Z,16.00
2023-05-22T02:40:03.749Z,16.00
2023-05-22T02:41:08.465Z,16.00
2023-05-22T02:42:04.005Z,16.00
2023-05-22T02:43:06.213Z,16.00
2023-05-22T02:44:06.273Z,16.00
2023-05-22T02:45:03.722Z,16.00
2023-05-22T02:46:03.336Z,16.00
2023-05-22T02:47:06.618Z,16.00
2023-05-22T02:48:04.142Z,16.00
2023-05-22T02:49:06.358Z,15.90
2023-05-22T02:50:03.763Z,15.90
2023-05-22T02:51:03.261Z,15.90
2023-05-22T02:52:03.827Z,15.90
2023-05-22T02:53:03.351Z,15.90
2023-05-22T02:54:03.902Z,15.90
2023-05-22T02:55:03.501Z,15.80
2023-05-22T02:56:04.104Z,15.80
2023-05-22T02:57:03.643Z,15.80
2023-05-22T02:58:05.733Z,15.80
2023-05-22T02:59:03.166Z,15.80
2023-05-22T03:00:03.754Z,15.80
2023-05-22T03:01:03.411Z,15.80
2023-05-22T03:02:04.070Z,15.70
2023-05-22T03:04:03.466Z,15.70
2023-05-22T03:06:04.019Z,15.70
2023-05-22T03:07:06.234Z,15.60
2023-05-22T03:08:06.346Z,15.70
2023-05-22T03:09:06.391Z,15.60
2023-05-22T03:10:03.958Z,15.60
2023-05-22T03:11:03.581Z,15.60
2023-05-22T03:12:03.171Z,15.60
2023-05-22T03:13:06.349Z,15.60
2023-05-22T03:14:06.430Z,15.50
2023-05-22T03:15:06.502Z,15.50
2023-05-22T03:16:06.720Z,15.50
2023-05-22T03:17:05.947Z,15.50
2023-05-22T03:18:03.445Z,15.50
2023-05-22T03:19:08.326Z,15.40
2023-05-22T03:20:04.019Z,15.40
2023-05-22T03:21:03.681Z,15.40
2023-05-22T03:22:05.859Z,15.40
2023-05-22T03:23:05.922Z,15.40
2023-05-22T03:24:03.399Z,15.40
2023-05-22T03:25:04.189Z,15.30
2023-05-22T03:26:03.856Z,15.30
2023-05-22T03:27:03.459Z,15.30
2023-05-22T03:28:06.742Z,15.30
2023-05-22T03:30:06.434Z,15.20
2023-05-22T03:31:03.894Z,15.30
2023-05-22T03:33:09.171Z,15.40
2023-05-22T03:34:06.408Z,15.30
2023-05-22T03:35:03.834Z,15.30
2023-05-22T03:36:03.470Z,15.30
2023-05-22T03:37:03.984Z,15.30
2023-05-22T03:38:08.614Z,15.30
2023-05-22T03:39:04.183Z,15.30
2023-05-22T03:40:06.523Z,15.30
2023-05-22T03:41:04.007Z,15.30
2023-05-22T03:42:08.610Z,15.30
2023-05-22T03:43:04.050Z,15.30
2023-05-22T03:44:08.664Z,15.30
2023-05-22T03:45:03.228Z,15.30
2023-05-22T03:46:03.935Z,15.30
2023-05-22T03:47:08.674Z,15.30
2023-05-22T03:49:06.432Z,15.30
2023-05-22T03:50:06.419Z,15.30
2023-05-22T03:51:03.857Z,15.30
2023-05-22T03:52:03.555Z,15.30
2023-05-22T03:53:03.302Z,15.30
2023-05-22T03:54:04.007Z,15.30
2023-05-22T03:55:03.641Z,15.30
2023-05-22T03:56:05.871Z,15.40
2023-05-22T03:57:03.534Z,15.40
2023-05-22T03:58:04.239Z,15.40
2023-05-22T04:00:03.660Z,15.50
2023-05-22T04:01:03.238Z,15.60
2023-05-22T04:02:06.454Z,15.70
2023-05-22T04:03:04.142Z,15.70
2023-05-22T04:04:03.744Z,15.70
2023-05-22T04:05:03.384Z,15.80
2023-05-22T04:06:06.569Z,15.90
2023-05-22T04:07:06.786Z,15.90
2023-05-22T04:09:03.813Z,16.00
2023-05-22T04:10:08.563Z,16.10
2023-05-22T04:11:04.149Z,16.00
2023-05-22T04:12:06.344Z,16.30
2023-05-22T04:13:06.537Z,16.40
2023-05-22T04:14:03.966Z,16.20
2023-05-22T04:15:03.608Z,16.40
2023-05-22T04:16:03.926Z,16.60
2023-05-22T04:17:06.408Z,16.70
2023-05-22T04:18:03.883Z,16.70
2023-05-22T04:19:07.579Z,16.90
2023-05-22T04:20:05.750Z,17.00
2023-05-22T04:21:05.852Z,17.00
2023-05-22T04:22:03.348Z,17.00
2023-05-22T04:23:06.594Z,17.20
2023-05-22T04:24:11.664Z,17.20
2023-05-22T04:25:07.486Z,17.30
2023-05-22T04:26:04.101Z,17.30
2023-05-22T04:27:06.330Z,17.40
2023-05-22T04:28:03.290Z,17.30
2023-05-22T04:29:09.099Z,17.40
2023-05-22T04:30:06.263Z,17.40
2023-05-22T04:31:11.340Z,17.50
2023-05-22T04:32:03.477Z,17.40
2023-05-22T04:33:06.408Z,17.60
2023-05-22T04:34:04.075Z,17.50
2023-05-22T04:35:06.299Z,17.60
2023-05-22T04:36:03.857Z,16.00
2023-05-22T04:37:05.965Z,17.80
2023-05-22T04:38:03.480Z,17.80
2023-05-22T04:39:11.708Z,18.10
2023-05-22T04:41:03.836Z,18.20
2023-05-22T04:42:03.539Z,18.40
2023-05-22T04:43:04.168Z,18.40
2023-05-22T04:44:03.748Z,18.50
2023-05-22T04:45:03.346Z,18.60
2023-05-22T04:46:06.648Z,18.80
2023-05-22T04:47:06.048Z,18.80
2023-05-22T04:49:04.140Z,18.90
2023-05-22T04:50:06.370Z,19.10
2023-05-22T04:51:08.981Z,19.20
2023-05-22T04:52:03.467Z,19.20
2023-05-22T04:53:04.519Z,19.30
2023-05-22T04:55:05.266Z,19.60
2023-05-22T04:56:06.236Z,19.80
2023-05-22T04:57:03.799Z,19.80
2023-05-22T04:58:11.026Z,20.10
2023-05-22T04:59:03.746Z,20.10
2023-05-22T05:00:05.943Z,20.40
2023-05-22T05:01:03.857Z,20.40
2023-05-22T05:03:08.547Z,20.70
2023-05-22T05:04:03.333Z,20.60
2023-05-22T05:05:04.037Z,20.60
2023-05-22T05:06:04.062Z,21.10
2023-05-22T05:07:03.648Z,21.20
2023-05-22T05:08:03.198Z,21.30
2023-05-22T05:09:04.164Z,21.40
2023-05-22T05:10:06.272Z,21.60
2023-05-22T05:11:06.438Z,21.70
2023-05-22T05:12:03.934Z,21.60
2023-05-22T05:13:03.543Z,21.70
2023-05-22T05:14:04.057Z,21.80
2023-05-22T05:16:03.250Z,22.10
2023-05-22T05:17:04.022Z,22.00
2023-05-22T05:18:06.319Z,21.90
2023-05-22T05:19:04.017Z,21.90
2023-05-22T05:20:03.727Z,21.90
2023-05-22T05:21:05.924Z,21.90
2023-05-22T05:22:03.365Z,21.90
2023-05-22T05:23:03.192Z,21.80
2023-05-22T05:24:08.923Z,21.70
2023-05-22T05:25:06.040Z,21.70
2023-05-22T05:26:06.023Z,21.70
2023-05-22T05:27:03.581Z,21.70
2023-05-22T05:28:03.241Z,21.60
2023-05-22T05:29:03.882Z,21.60
2023-05-22T05:30:03.535Z,21.50
2023-05-22T05:31:03.166Z,21.40
2023-05-22T05:32:03.729Z,21.40
2023-05-22T05:33:08.589Z,21.30
2023-05-22T05:35:11.388Z,21.30
2023-05-22T05:36:03.937Z,21.30
2023-05-22T05:37:03.499Z,21.30
2023-05-22T05:38:04.155Z,21.20
2023-05-22T05:39:03.781Z,21.10
2023-05-22T05:40:03.367Z,21.10
2023-05-22T05:41:03.918Z,21.00
2023-05-22T05:42:03.659Z,21.00
2023-05-22T05:43:03.234Z,20.90
2023-05-22T05:44:06.357Z,20.90
2023-05-22T05:45:03.807Z,20.90
2023-05-22T05:46:03.381Z,20.80
2023-05-22T05:47:04.100Z,20.80
2023-05-22T05:49:08.780Z,20.70
2023-05-22T05:50:08.363Z,20.60
2023-05-22T05:51:03.878Z,20.60
2023-05-22T05:52:06.033Z,20.70
2023-05-22T05:53:05.954Z,20.70
2023-05-22T05:54:03.452Z,20.60
2023-05-22T05:55:04.139Z,20.70
2023-05-22T05:56:06.536Z,20.80
2023-05-22T05:57:04.109Z,20.80
2023-05-22T05:58:03.714Z,20.90
2023-05-22T05:59:08.496Z,21.10
2023-05-22T06:00:03.946Z,21.10
2023-05-22T06:01:03.654Z,21.20
2023-05-22T06:02:03.248Z,21.40
2023-05-22T06:03:06.354Z,21.50
2023-05-22T06:04:04.334Z,21.50
2023-05-22T06:05:04.100Z,21.60
2023-05-22T06:06:03.834Z,21.70
2023-05-22T06:07:06.053Z,21.80
2023-05-22T06:08:03.649Z,21.80
2023-05-22T06:09:03.389Z,21.90
2023-05-22T06:10:03.981Z,21.90
2023-05-22T06:11:06.012Z,22.10
2023-05-22T06:12:06.020Z,22.20
2023-05-22T06:13:06.138Z,22.30
2023-05-22T06:14:03.684Z,22.20
2023-05-22T06:15:05.864Z,22.40
2023-05-22T06:16:05.800Z,22.40
2023-05-22T06:17:03.525Z,22.50
2023-05-22T06:18:04.215Z,22.60
2023-05-22T06:19:03.948Z,22.60
2023-05-22T06:20:03.621Z,22.60
2023-05-22T06:21:03.322Z,22.70
2023-05-22T06:22:03.886Z,22.80
2023-05-22T06:23:05.943Z,23.00
2023-05-22T06:24:06.006Z,23.00
2023-05-22T06:25:06.021Z,23.10
2023-05-22T06:26:03.536Z,23.10
2023-05-22T06:27:05.717Z,23.30
2023-05-22T06:28:03.021Z,23.20
2023-05-22T06:29:06.135Z,23.40
2023-05-22T06:30:04.712Z,23.40
2023-05-22T06:32:10.947Z,23.60
2023-05-22T06:33:06.238Z,23.70
2023-05-22T06:34:03.847Z,23.70
2023-05-22T06:35:03.865Z,23.70
2023-05-22T06:37:05.826Z,23.90
2023-05-22T06:38:03.404Z,23.80
2023-05-22T06:39:06.485Z,24.00
2023-05-22T06:40:06.111Z,24.10
2023-05-22T06:41:06.103Z,24.10
2023-05-22T06:42:03.612Z,24.10
2023-05-22T06:43:03.577Z,24.20
2023-05-22T06:44:04.111Z,24.20
2023-05-22T06:45:05.977Z,24.30
2023-05-22T06:46:05.979Z,24.30
2023-05-22T06:47:08.576Z,24.40
2023-05-22T06:48:04.074Z,24.40
2023-05-22T06:49:03.767Z,24.50
2023-05-22T06:50:04.032Z,24.50
2023-05-22T06:51:09.082Z,24.60
2023-05-22T06:52:05.283Z,24.60
2023-05-22T06:53:06.705Z,21.50
2023-05-22T06:54:08.309Z,24.70
2023-05-22T06:55:06.425Z,24.80
2023-05-22T06:56:03.810Z,24.80
2023-05-22T06:57:06.110Z,24.90
2023-05-22T06:58:03.568Z,24.90
2023-05-22T06:59:06.027Z,25.00
2023-05-22T07:00:06.333Z,25.10
2023-05-22T07:01:03.849Z,25.10
2023-05-22T07:02:03.581Z,25.20
2023-05-22T07:03:03.275Z,25.20
2023-05-22T07:04:06.584Z,25.30
2023-05-22T07:05:06.519Z,25.40
2023-05-22T07:06:06.724Z,25.40
2023-05-22T07:07:05.802Z,25.50
2023-05-22T07:08:03.274Z,25.50
2023-05-22T07:09:06.510Z,25.70
2023-05-22T07:10:04.051Z,25.60
2023-05-22T07:11:06.274Z,25.90
2023-05-22T07:12:03.796Z,25.80
2023-05-22T07:13:05.925Z,25.90
2023-05-22T07:14:05.973Z,26.00
2023-05-22T07:15:06.025Z,26.00
2023-05-22T07:16:06.110Z,26.00
2023-05-22T07:17:06.467Z,26.10
2023-05-22T07:18:06.439Z,26.10
2023-05-22T07:19:09.101Z,26.10
2023-05-22T07:20:03.784Z,26.10
2023-05-22T07:21:05.982Z,26.20
2023-05-22T07:22:03.514Z,26.20
2023-05-22T07:23:04.173Z,26.30
2023-05-22T07:24:06.297Z,26.30
2023-05-22T07:25:03.785Z,26.30
2023-05-22T07:26:03.363Z,26.40
2023-05-22T07:27:11.553Z,26.30
2023-05-22T07:28:04.038Z,26.30
2023-05-22T07:29:03.546Z,26.40
2023-05-22T07:30:06.712Z,26.40
2023-05-22T07:32:03.915Z,26.30
2023-05-22T07:34:03.477Z,26.40
2023-05-22T07:35:04.111Z,26.40
2023-05-22T07:36:03.742Z,26.40
2023-05-22T07:37:03.320Z,26.40
2023-05-22T07:38:03.893Z,26.40
2023-05-22T07:39:03.490Z,26.50
2023-05-22T07:40:08.352Z,26.50
2023-05-22T07:41:03.794Z,26.50
2023-05-22T07:42:03.378Z,26.50
2023-05-22T07:43:03.952Z,26.50
2023-05-22T07:44:03.673Z,26.50
2023-05-22T07:45:05.852Z,26.50
2023-05-22T07:46:03.271Z,26.50
2023-05-22T07:47:06.559Z,26.50
2023-05-22T07:48:04.256Z,26.50
2023-05-22T07:49:06.492Z,26.50
2023-05-22T07:50:03.919Z,26.50
2023-05-22T07:51:03.492Z,26.90
2023-05-22T07:52:05.727Z,26.60
2023-05-22T07:53:03.207Z,26.60
2023-05-22T07:54:03.907Z,26.60
2023-05-22T07:55:06.114Z,26.70
2023-05-22T07:56:03.595Z,26.60
2023-05-22T07:57:06.644Z,26.60
2023-05-22T07:58:04.125Z,26.70
2023-05-22T07:59:03.799Z,26.60
2023-05-22T08:00:03.369Z,26.50
2023-05-22T08:01:04.012Z,26.50
2023-05-22T08:03:03.904Z,26.50
2023-05-22T08:04:09.288Z,26.50
2023-05-22T08:05:06.729Z,26.40
2023-05-22T08:07:03.979Z,26.50
2023-05-22T08:08:06.068Z,26.30
2023-05-22T08:09:06.019Z,26.30
2023-05-22T08:10:06.001Z,26.30
2023-05-22T08:11:04.621Z,26.20
2023-05-22T08:12:03.530Z,26.20
2023-05-22T08:13:03.815Z,26.10
2023-05-22T08:14:06.035Z,26.10
2023-05-22T08:15:03.550Z,26.00
2023-05-22T08:16:04.173Z,26.00
2023-05-22T08:17:06.591Z,25.80
2023-05-22T08:18:03.258Z,26.00
2023-05-22T08:19:03.997Z,25.90
2023-05-22T08:20:04.081Z,25.80
2023-05-22T08:21:03.928Z,25.70
2023-05-22T08:22:11.220Z,25.60
2023-05-22T08:23:03.775Z,25.60
2023-05-22T08:24:03.487Z,25.60
2023-05-22T08:25:03.446Z,25.60
2023-05-22T08:26:04.096Z,25.60
2023-05-22T08:27:03.798Z,25.50
2023-05-22T08:28:03.423Z,25.50
2023-05-22T08:29:03.999Z,25.50
2023-05-22T08:30:06.179Z,25.50
2023-05-22T08:31:03.741Z,25.50
2023-05-22T08:32:06.171Z,25.50
2023-05-22T08:33:04.052Z,25.50
2023-05-22T08:34:06.210Z,25.50
2023-05-22T08:35:03.692Z,25.40
2023-05-22T08:36:03.336Z,25.40
2023-05-22T08:37:04.000Z,25.40
2023-05-22T08:38:03.691Z,25.50
2023-05-22T08:39:05.965Z,25.40
2023-05-22T08:40:03.737Z,25.40
2023-05-22T08:41:03.377Z,25.40
2023-05-22T08:42:03.982Z,25.50
2023-05-22T08:43:03.669Z,25.40
2023-05-22T08:44:03.374Z,25.50
2023-05-22T08:45:03.992Z,25.50
2023-05-22T08:46:06.195Z,25.50
2023-05-22T08:47:03.816Z,25.50
2023-05-22T08:48:03.461Z,25.50
2023-05-22T08:49:05.757Z,25.50
2023-05-22T08:50:05.881Z,25.50
2023-05-22T08:51:03.446Z,25.40
2023-05-22T08:52:03.132Z,25.40
2023-05-22T08:53:03.796Z,25.50
2023-05-22T08:54:03.584Z,25.40
2023-05-22T08:55:08.338Z,25.40
2023-05-22T08:56:03.821Z,25.40
2023-05-22T08:57:03.488Z,25.40
2023-05-22T08:58:07.209Z,25.40
2023-05-22T08:59:03.666Z,25.40
2023-05-22T09:00:05.727Z,25.40
2023-05-22T09:01:03.232Z,25.40
2023-05-22T09:02:05.123Z,25.40
2023-05-22T09:04:03.979Z,25.50
2023-05-22T09:05:06.279Z,25.60
2023-05-22T09:06:06.367Z,25.60
2023-05-22T09:07:03.787Z,25.60
2023-05-22T09:08:12.388Z,25.60
2023-05-22T09:09:03.626Z,25.60
2023-05-22T09:10:03.256Z,25.60
2023-05-22T09:11:03.893Z,25.60
2023-05-22T09:12:06.108Z,25.70
2023-05-22T09:13:03.630Z,25.60
2023-05-22T09:14:03.217Z,25.70
2023-05-22T09:15:03.793Z,25.70
2023-05-22T09:16:03.395Z,25.80
2023-05-22T09:17:04.140Z,25.80
2023-05-22T09:18:08.996Z,25.90
2023-05-22T09:20:03.348Z,26.00
2023-05-22T09:21:06.978Z,26.00
2023-05-22T09:22:07.074Z,26.10
2023-05-22T09:24:03.263Z,26.10
2023-05-22T09:25:04.016Z,26.10
2023-05-22T09:26:03.451Z,26.30
2023-05-22T09:27:03.997Z,26.20
2023-05-22T09:28:06.254Z,26.30
2023-05-22T09:29:04.173Z,26.30
2023-05-22T09:30:03.847Z,26.30
2023-05-22T09:31:04.439Z,26.30
2023-05-22T09:33:06.522Z,26.20
2023-05-22T09:34:04.168Z,26.20
2023-05-22T09:35:06.271Z,26.20
2023-05-22T09:36:03.664Z,26.20
2023-05-22T09:37:03.275Z,26.10
2023-05-22T09:38:03.888Z,26.10
2023-05-22T09:39:03.569Z,26.10
2023-05-22T09:40:10.893Z,26.20
2023-05-22T09:41:05.981Z,26.20
2023-05-22T09:42:05.934Z,26.30
2023-05-22T09:43:03.380Z,26.30
2023-05-22T09:44:03.876Z,26.30
2023-05-22T09:46:06.487Z,26.30
2023-05-22T09:47:03.990Z,26.30
2023-05-22T09:48:03.617Z,26.30
2023-05-22T09:49:05.716Z,26.30
2023-05-22T09:50:05.853Z,26.30
2023-05-22T09:51:03.395Z,26.30
2023-05-22T09:52:04.039Z,26.30
2023-05-22T09:53:06.246Z,26.40
2023-05-22T09:54:06.346Z,26.40
2023-05-22T09:55:06.404Z,26.40
2023-05-22T09:56:03.933Z,26.30
2023-05-22T09:57:06.035Z,26.40
2023-05-22T09:58:08.548Z,26.40
2023-05-22T09:59:09.032Z,26.50
2023-05-22T10:00:16.544Z,26.50
2023-05-22T10:01:11.668Z,26.50
2023-05-22T10:02:03.437Z,26.50
2023-05-22T10:03:03.335Z,26.50
2023-05-22T10:04:04.108Z,26.60
2023-05-22T10:05:05.800Z,26.60
2023-05-22T10:06:03.328Z,26.70
2023-05-22T10:07:03.873Z,26.60
2023-05-22T10:09:06.584Z,26.80
2023-05-22T10:11:03.695Z,26.70
2023-05-22T10:12:06.266Z,26.70
2023-05-22T10:13:03.719Z,26.70
2023-05-22T10:14:03.243Z,26.70
2023-05-22T10:15:06.353Z,26.70
2023-05-22T10:16:03.888Z,26.70
2023-05-22T10:17:03.561Z,26.70
2023-05-22T10:18:03.285Z,26.70
2023-05-22T10:19:04.039Z,26.70
2023-05-22T10:22:03.899Z,26.80
2023-05-22T10:23:06.054Z,26.80
2023-05-22T10:24:03.574Z,26.80
2023-05-22T10:25:03.348Z,26.90
2023-05-22T10:26:06.573Z,26.90
2023-05-22T10:27:04.092Z,26.90
2023-05-22T10:28:03.749Z,26.90
2023-05-22T10:29:03.355Z,26.90
2023-05-22T10:30:03.902Z,26.90
2023-05-22T10:31:03.529Z,27.00
2023-05-22T10:32:03.324Z,27.10
2023-05-22T10:33:03.963Z,27.10
2023-05-22T10:35:03.464Z,27.10
2023-05-22T10:36:04.174Z,27.10
2023-05-22T10:37:16.378Z,27.10
2023-05-22T10:39:08.805Z,27.00
2023-05-22T10:41:03.172Z,27.00
2023-05-22T10:42:08.891Z,27.10
2023-05-22T10:43:05.966Z,27.10
2023-05-22T10:44:05.956Z,27.20
2023-05-22T10:45:09.495Z,27.20
2023-05-22T10:46:06.643Z,27.20
2023-05-22T10:47:04.205Z,27.30
2023-05-22T10:48:09.289Z,27.30
2023-05-22T10:50:03.825Z,27.30
2023-05-22T10:51:03.770Z,27.40
2023-05-22T10:52:03.392Z,27.40
2023-05-22T10:53:03.979Z,27.50
2023-05-22T10:54:03.563Z,27.50
2023-05-22T10:55:03.477Z,27.50
2023-05-22T10:56:04.002Z,27.50
2023-05-22T10:57:06.197Z,27.50
2023-05-22T10:58:04.899Z,27.50
2023-05-22T10:59:03.765Z,27.50
2023-05-22T11:01:04.052Z,27.60
2023-05-22T11:02:06.221Z,27.50
2023-05-22T11:03:16.961Z,27.60
2023-05-22T11:05:11.368Z,27.60
2023-05-22T11:06:03.949Z,27.60
2023-05-22T11:07:03.633Z,27.70
2023-05-22T11:08:05.791Z,27.80
2023-05-22T11:09:03.324Z,27.80
2023-05-22T11:10:06.479Z,27.80
2023-05-22T11:11:06.508Z,27.70
2023-05-22T11:12:03.991Z,27.80
2023-05-22T11:13:03.680Z,27.80
2023-05-22T11:14:03.554Z,27.80
2023-05-22T11:15:04.231Z,27.80
2023-05-22T11:16:08.980Z,27.80
2023-05-22T11:17:06.172Z,27.80
2023-05-22T11:18:06.251Z,27.80
2023-05-22T11:19:14.638Z,27.80
2023-05-22T11:20:03.523Z,27.70
2023-05-22T11:21:05.992Z,27.90
2023-05-22T11:22:03.557Z,28.00
2023-05-22T11:23:03.254Z,27.90
2023-05-22T11:24:14.226Z,27.90
2023-05-22T11:25:03.711Z,27.90
2023-05-22T11:26:05.857Z,27.90
2023-05-22T11:27:03.369Z,27.90
2023-05-22T11:28:03.980Z,27.90
2023-05-22T11:29:06.358Z,27.90
2023-05-22T11:30:06.386Z,28.10
2023-05-22T11:31:03.898Z,28.10
2023-05-22T11:32:03.637Z,28.10
2023-05-22T11:33:05.905Z,28.20
2023-05-22T11:34:03.680Z,28.40
2023-05-22T11:35:03.301Z,28.20
2023-05-22T11:36:06.484Z,28.20
2023-05-22T11:37:03.913Z,28.20
2023-05-22T11:38:06.090Z,28.20
2023-05-22T11:39:08.568Z,28.30
2023-05-22T11:40:04.074Z,28.20
2023-05-22T11:41:06.234Z,28.20
2023-05-22T11:42:03.760Z,28.30
2023-05-22T11:43:05.918Z,28.10
2023-05-22T11:44:03.361Z,28.20
2023-05-22T11:45:03.996Z,28.10
2023-05-22T11:47:06.633Z,28.10
2023-05-22T11:48:06.727Z,28.10
2023-05-22T11:50:03.914Z,28.10
2023-05-22T11:51:03.548Z,28.10
2023-05-22T11:52:03.238Z,28.10
2023-05-22T11:53:03.887Z,28.20
2023-05-22T11:54:03.514Z,28.20
2023-05-22T11:55:06.668Z,28.20
2023-05-22T11:56:04.137Z,28.20
2023-05-22T11:57:03.742Z,28.30
2023-05-22T11:58:03.438Z,28.30
2023-05-22T11:59:03.221Z,28.40
2023-05-22T12:00:06.604Z,28.40
2023-05-22T12:02:08.843Z,28.50
2023-05-22T12:04:05.792Z,28.50
2023-05-22T12:05:03.644Z,28.50
2023-05-22T12:06:05.752Z,28.50
2023-05-22T12:07:03.304Z,28.50
2023-05-22T12:08:04.073Z,28.50
2023-05-22T12:09:03.683Z,28.50
2023-05-22T12:10:05.873Z,28.50
2023-05-22T12:11:08.527Z,28.50
2023-05-22T12:12:06.718Z,28.50
2023-05-22T12:14:11.380Z,28.50
2023-05-22T12:15:05.879Z,28.50
2023-05-22T12:16:06.025Z,28.60
2023-05-22T12:17:03.665Z,28.50
2023-05-22T12:18:03.805Z,28.70
2023-05-22T12:19:06.598Z,28.80
2023-05-22T12:20:05.752Z,28.80
2023-05-22T12:21:03.261Z,28.80
2023-05-22T12:22:03.898Z,28.80
2023-05-22T12:23:05.912Z,28.80
2023-05-22T12:24:05.900Z,28.80
2023-05-22T12:25:03.391Z,28.80
2023-05-22T12:26:06.489Z,28.80
2023-05-22T12:27:03.944Z,28.80
2023-05-22T12:28:03.515Z,28.80
2023-05-22T12:29:04.105Z,28.80
2023-05-22T12:30:06.284Z,28.80
2023-05-22T12:31:06.465Z,28.80
2023-05-22T12:32:03.975Z,28.80
2023-05-22T12:33:03.809Z,28.80
2023-05-22T12:35:03.187Z,28.70
2023-05-22T12:36:03.748Z,28.60
2023-05-22T12:37:03.353Z,28.50
2023-05-22T12:38:03.934Z,28.40
2023-05-22T12:39:03.496Z,28.40
2023-05-22T12:40:06.651Z,28.20
2023-05-22T12:41:06.595Z,28.20
2023-05-22T12:42:06.623Z,28.20
2023-05-22T12:43:04.081Z,28.20
2023-05-22T12:44:03.621Z,28.20
2023-05-22T12:45:05.789Z,28.20
2023-05-22T12:46:03.417Z,28.20
2023-05-22T12:47:03.965Z,28.20
2023-05-22T12:48:06.187Z,28.20
2023-05-22T12:49:03.891Z,28.20
2023-05-22T12:50:03.459Z,28.20
2023-05-22T12:51:04.029Z,28.30
2023-05-22T12:53:03.299Z,28.30
2023-05-22T12:54:03.888Z,28.30
2023-05-22T12:55:05.966Z,28.30
2023-05-22T12:56:05.957Z,28.30
2023-05-22T12:57:03.462Z,28.30
2023-05-22T12:58:04.087Z,28.30
2023-05-22T12:59:09.064Z,28.30
2023-05-22T13:00:06.063Z,28.30
2023-05-22T13:01:03.534Z,28.20
2023-05-22T13:02:03.585Z,28.30
2023-05-22T13:03:03.599Z,28.30
2023-05-22T13:05:04.117Z,28.20
2023-05-22T13:06:03.841Z,28.20
2023-05-22T13:07:06.093Z,28.00
2023-05-22T13:08:06.164Z,28.10
2023-05-22T13:09:03.744Z,28.10
2023-05-22T13:10:05.844Z,28.10
2023-05-22T13:11:03.309Z,28.10
2023-05-22T13:12:06.573Z,28.10
2023-05-22T13:13:04.128Z,28.00
2023-05-22T13:15:03.138Z,28.00
2023-05-22T13:16:06.301Z,27.90
2023-05-22T13:17:06.467Z,27.90
2023-05-22T13:18:04.007Z,27.80
2023-05-22T13:19:06.353Z,27.90
2023-05-22T13:20:03.947Z,27.80
2023-05-22T13:21:03.554Z,27.80
2023-05-22T13:22:04.109Z,27.80
2023-05-22T13:23:03.659Z,27.80
2023-05-22T13:24:05.825Z,27.80
2023-05-22T13:25:03.228Z,27.80
2023-05-22T13:26:03.899Z,27.90
2023-05-22T13:27:06.137Z,27.80
2023-05-22T13:28:03.594Z,27.80
2023-05-22T13:29:05.777Z,27.80
2023-05-22T13:30:03.161Z,27.90
2023-05-22T13:31:03.756Z,27.90
2023-05-22T13:32:05.914Z,28.00
2023-05-22T13:33:03.375Z,28.00
2023-05-22T13:34:03.982Z,28.00
2023-05-22T13:35:08.753Z,28.00
2023-05-22T13:36:05.857Z,28.10
2023-05-22T13:37:03.306Z,28.10
2023-05-22T13:38:03.981Z,28.10
2023-05-22T13:40:03.217Z,28.10
2023-05-22T13:41:03.852Z,28.10
2023-05-22T13:42:03.481Z,28.40
2023-05-22T13:43:04.113Z,28.30
2023-05-22T13:44:03.735Z,28.20
2023-05-22T13:45:03.349Z,28.30